Time;durP1;ratioP1;P1;durP2;ratioP2;P2;SDS_P1;SDS_P2;PMS_P1;PMS_P2;Temp;Humidity;BMP_temperature;BMP_pressure;BME280_temperature;BME280_humidity;BME280_pressure;Samples;Min_cycle;Max_cycle;Signal;HPM_P1;HPM_P2
2022/07/18 00:01:31;;;;;;;4.97;4.47;;;21.50;56.00;;;24.13;42.88;102461.16;5092969;28;20212;-57
2022/07/18 00:03:59;;;;;;;6.73;4.83;;;21.50;56.10;;;24.12;42.80;102457.69;5113115;28;20582;-59
2022/07/18 00:06:26;;;;;;;5.73;4.37;;;21.40;56.40;;;24.11;42.74;102453.31;5113336;28;20208;-59
2022/07/18 00:08:54;;;;;;;5.10;4.30;;;21.40;56.20;;;24.06;43.06;102450.47;5114842;28;20192;-59
2022/07/18 00:11:22;;;;;;;6.43;4.33;;;21.40;56.30;;;23.98;43.03;102448.06;5116661;28;20222;-59
2022/07/18 00:13:51;;;;;;;4.50;4.10;;;21.30;56.10;;;23.91;43.33;102447.28;5117861;28;20188;-60
2022/07/18 00:16:19;;;;;;;5.00;4.10;;;21.30;56.50;;;23.84;43.62;102440.31;5116855;28;20215;-57
2022/07/18 00:18:46;;;;;;;5.50;3.67;;;21.30;56.80;;;23.72;43.89;102445.59;5114803;28;20183;-59
2022/07/18 00:21:13;;;;;;;5.43;4.20;;;21.20;57.00;;;23.62;43.95;102437.19;5116615;28;20203;-60
2022/07/18 00:23:41;;;;;;;5.07;3.80;;;21.10;57.10;;;23.55;44.10;102433.72;5116991;28;20192;-59
2022/07/18 00:26:09;;;;;;;5.03;4.33;;;21.00;57.20;;;23.49;44.29;102431.88;5117339;28;20211;-60
2022/07/18 00:28:36;;;;;;;4.03;3.63;;;21.00;57.40;;;23.45;44.48;102436.06;5116916;28;20199;-59
2022/07/18 00:31:05;;;;;;;5.40;3.97;;;20.90;57.30;;;23.44;44.35;102423.66;5116381;28;20184;-59
2022/07/18 00:33:32;;;;;;;5.07;4.00;;;20.80;57.50;;;23.42;44.32;102428.44;5116920;28;20202;-60
2022/07/18 00:36:00;;;;;;;5.87;3.80;;;20.80;57.50;;;23.39;44.52;102426.19;5114933;28;20191;-60
2022/07/18 00:38:27;;;;;;;4.33;3.83;;;20.80;57.80;;;23.40;44.59;102425.97;5117005;28;20188;-59
2022/07/18 00:40:55;;;;;;;5.77;3.87;;;20.80;58.10;;;23.41;44.57;102432.19;5116263;28;20212;-59
2022/07/18 00:43:22;;;;;;;5.67;3.83;;;20.80;57.90;;;23.40;44.30;102433.19;5116618;28;20188;-60
2022/07/18 00:45:52;;;;;;;7.80;4.43;;;20.80;57.80;;;23.38;44.34;102440.66;5116422;28;20192;-60
2022/07/18 00:48:21;;;;;;;4.87;3.67;;;20.70;57.90;;;23.34;44.18;102439.44;5116615;28;20198;-60
2022/07/18 00:50:49;;;;;;;4.43;3.90;;;20.70;57.70;;;23.28;44.38;102434.91;5114595;28;20184;-57
2022/07/18 00:53:17;;;;;;;4.37;3.70;;;20.70;57.70;;;23.23;44.23;102426.66;5117168;28;20605;-58
2022/07/18 00:55:46;;;;;;;5.77;4.33;;;20.60;57.60;;;23.19;44.49;102426.28;5116899;28;20679;-61
2022/07/18 00:58:14;;;;;;;4.60;3.27;;;20.60;57.90;;;23.14;44.87;102427.97;5115891;28;20555;-56
2022/07/18 01:03:29;;;;;;;5.03;3.80;;;20.50;58.00;;;23.01;45.07;102433.44;5116500;27;20184;-60
2022/07/18 01:05:56;;;;;;;4.10;3.43;;;20.50;58.10;;;22.98;45.14;102429.31;5116481;28;20211;-60
2022/07/18 01:08:24;;;;;;;4.47;3.63;;;20.40;58.30;;;23.01;45.32;102433.44;5113753;28;20202;-60
2022/07/18 01:10:53;;;;;;;4.23;3.40;;;20.40;58.60;;;23.05;45.39;102440.00;5115390;28;20190;-59
2022/07/18 01:13:21;;;;;;;3.43;3.00;;;20.40;59.00;;;23.10;45.06;102440.19;5116028;28;20191;-60
2022/07/18 01:15:48;;;;;;;4.33;3.40;;;20.40;58.80;;;23.09;45.00;102441.22;5115760;28;20188;-60
2022/07/18 01:18:16;;;;;;;3.90;3.23;;;20.40;58.70;;;23.07;45.45;102440.63;5116126;28;20257;-60
2022/07/18 01:20:45;;;;;;;6.00;4.20;;;20.40;58.90;;;23.02;45.13;102443.13;5114322;28;20204;-60
2022/07/18 01:23:12;;;;;;;3.30;3.00;;;20.40;58.90;;;23.01;45.60;102439.59;5115702;28;20195;-60
2022/07/18 01:25:39;;;;;;;3.33;3.03;;;20.40;59.00;;;23.01;45.37;102438.81;5114076;28;20215;-60
2022/07/18 01:28:07;;;;;;;5.00;3.80;;;20.30;59.00;;;22.99;45.62;102424.75;5115802;28;20561;-60
2022/07/18 01:30:34;;;;;;;4.33;3.93;;;20.40;59.10;;;22.97;45.74;102421.44;5115693;28;20659;-59
2022/07/18 01:33:03;;;;;;;4.47;3.50;;;20.30;59.50;;;22.96;45.36;102419.81;5115999;28;20222;-60
2022/07/18 01:35:32;;;;;;;3.30;3.00;;;20.30;59.20;;;22.92;45.83;102414.88;5115517;28;20188;-59
2022/07/18 01:38:03;;;;;;;4.00;3.60;;;20.30;59.50;;;22.94;45.49;102421.91;5115550;28;20192;-57
2022/07/18 01:40:31;;;;;;;4.63;3.10;;;20.30;59.50;;;22.95;45.85;102412.78;5113378;28;20215;-59
2022/07/18 01:42:58;;;;;;;4.67;3.47;;;20.30;59.60;;;22.97;45.90;102418.75;5115603;28;20230;-60
2022/07/18 01:45:26;;;;;;;5.17;3.03;;;20.30;59.50;;;22.97;45.59;102411.53;5115350;28;20683;-59
2022/07/18 01:47:53;;;;;;;5.40;3.53;;;20.30;59.50;;;23.00;45.42;102412.97;5115014;28;20581;-57
2022/07/18 01:50:21;;;;;;;3.20;2.90;;;20.30;59.50;;;23.00;45.52;102412.97;5115108;28;20191;-62
2022/07/18 01:52:48;;;;;;;3.77;3.00;;;20.30;59.40;;;23.00;45.79;102415.66;5115063;28;20671;-58
2022/07/18 01:55:17;;;;;;;5.40;3.00;;;20.30;59.40;;;22.97;45.61;102416.06;5114962;28;20188;-60
2022/07/18 01:57:44;;;;;;;4.80;3.03;;;20.30;59.20;;;22.93;45.23;102421.06;5113318;28;20666;-57
2022/07/18 02:00:13;;;;;;;4.40;3.50;;;20.30;59.20;;;22.84;45.68;102416.97;5115259;28;20212;-59
2022/07/18 02:02:41;;;;;;;3.87;3.13;;;20.30;59.40;;;22.77;45.53;102417.00;5114639;28;20219;-59
2022/07/18 02:05:09;;;;;;;3.37;3.03;;;20.20;59.30;;;22.75;45.74;102411.03;5115125;28;20188;-60
2022/07/18 02:07:39;;;;;;;3.27;2.77;;;20.10;59.40;;;22.72;46.10;102399.91;5115107;28;20180;-60
2022/07/18 02:10:09;;;;;;;5.07;3.33;;;20.10;59.50;;;22.69;45.79;102403.84;5114988;28;20195;-60
2022/07/18 02:12:39;;;;;;;3.40;3.00;;;20.10;59.70;;;22.68;46.30;102404.84;5114545;28;20218;-61
2022/07/18 02:15:09;;;;;;;3.30;3.00;;;20.10;59.80;;;22.67;46.24;102411.28;5095072;28;20189;-60
2022/07/18 02:17:37;;;;;;;3.90;2.87;;;20.10;59.80;;;22.68;45.93;102402.16;5094593;28;20193;-59
2022/07/18 02:20:11;;;;;;;3.53;3.07;;;20.00;60.00;;;22.67;45.85;102411.28;5094418;28;20204;-59
2022/07/18 02:22:39;;;;;;;7.50;3.40;;;20.00;59.80;;;22.69;46.03;102416.44;5093734;28;20208;-59
2022/07/18 02:25:08;;;;;;;6.67;3.20;;;20.00;59.90;;;22.69;45.96;102406.50;5094540;28;20196;-59
2022/07/18 02:27:37;;;;;;;3.27;2.97;;;20.00;59.80;;;22.69;45.60;102403.00;5094064;28;20197;-59
2022/07/18 02:30:08;;;;;;;3.57;3.27;;;20.00;59.50;;;22.66;46.02;102412.31;5095089;28;20267;-60
2022/07/18 02:32:37;;;;;;;3.80;3.00;;;20.00;59.50;;;22.62;45.76;102405.72;5093963;28;20209;-60
2022/07/18 02:35:08;;;;;;;3.30;3.00;;;20.00;59.40;;;22.60;45.92;102409.63;5094014;28;20220;-59
2022/07/18 02:37:38;;;;;;;4.87;3.03;;;19.90;59.60;;;22.53;46.18;102406.97;5094832;28;20196;-60
2022/07/18 02:40:08;;;;;;;3.23;2.93;;;19.90;59.60;;;22.49;46.16;102413.78;5094004;28;20216;-60
2022/07/18 02:42:38;;;;;;;3.73;3.03;;;19.90;59.70;;;22.44;46.03;102413.59;5093514;28;20216;-59
2022/07/18 02:45:07;;;;;;;3.33;3.03;;;19.80;59.60;;;22.43;45.94;102411.13;5093994;28;20181;-57
2022/07/18 02:47:35;;;;;;;4.60;3.43;;;19.80;59.60;;;22.37;46.09;102409.28;5095328;28;20198;-60
2022/07/18 02:50:03;;;;;;;3.70;3.40;;;19.70;59.80;;;22.27;46.73;102404.38;5092851;28;20181;-60
2022/07/18 02:52:30;;;;;;;3.50;3.00;;;19.70;60.00;;;22.23;46.14;102401.28;5093409;28;20676;-59
2022/07/18 02:55:01;;;;;;;4.20;3.20;;;19.70;60.30;;;22.24;46.30;102396.72;5093507;28;20189;-60
2022/07/18 02:57:28;;;;;;;3.23;3.00;;;19.60;60.40;;;22.27;46.51;102393.63;5093516;28;20655;-59
2022/07/18 02:59:57;;;;;;;5.37;3.40;;;19.60;60.50;;;22.26;46.65;102389.28;5093928;28;20216;-60
2022/07/18 03:02:26;;;;;;;7.07;3.33;;;19.60;60.50;;;22.26;47.16;102389.28;5095464;28;20217;-59
2022/07/18 03:04:54;;;;;;;3.63;3.00;;;19.60;60.90;;;22.29;46.90;102386.19;5114343;28;20214;-59
2022/07/18 03:07:21;;;;;;;4.13;3.10;;;19.60;61.10;;;22.33;46.76;102375.84;5113558;28;20206;-59
2022/07/18 03:09:48;;;;;;;3.73;3.40;;;19.60;60.80;;;22.32;46.37;102380.41;5113862;28;20661;-60
2022/07/18 03:12:16;;;;;;;3.40;3.10;;;19.60;60.50;;;22.30;46.61;102387.03;5113559;28;20211;-60
2022/07/18 03:14:43;;;;;;;3.13;2.93;;;19.60;60.50;;;22.28;46.68;102389.91;5113789;28;20180;-58
2022/07/18 03:17:12;;;;;;;4.30;3.20;;;19.60;60.50;;;22.26;46.73;102381.25;5113549;28;20192;-59
2022/07/18 03:19:40;;;;;;;7.13;3.83;;;19.60;60.70;;;22.24;46.73;102372.59;5111896;28;20192;-60
2022/07/18 03:22:07;;;;;;;6.23;3.37;;;19.60;61.00;;;22.23;46.51;102373.59;5113377;28;20212;-60
2022/07/18 03:24:35;;;;;;;6.00;3.33;;;19.60;60.70;;;22.22;46.54;102363.94;5113565;28;20187;-59
2022/07/18 03:27:02;;;;;;;3.57;2.77;;;19.60;61.00;;;22.25;46.77;102374.22;5113537;28;20191;-59
2022/07/18 03:29:30;;;;;;;3.80;3.50;;;19.60;60.90;;;22.27;46.14;102372.16;5113787;28;20196;-60
2022/07/18 03:31:57;;;;;;;4.93;3.43;;;19.60;60.70;;;22.25;46.43;102369.69;5113237;28;20208;-59
2022/07/18 03:34:26;;;;;;;3.97;3.10;;;19.60;60.70;;;22.26;46.40;102367.81;5113486;28;20198;-59
2022/07/18 03:36:53;;;;;;;4.53;3.63;;;19.60;60.80;;;22.27;46.56;102371.34;5111221;28;20230;-60
2022/07/18 03:39:21;;;;;;;3.73;3.30;;;19.50;60.70;;;22.22;46.56;102367.44;5113053;28;20188;-59
2022/07/18 03:41:48;;;;;;;3.93;3.27;;;19.50;60.50;;;22.17;46.69;102366.41;5112858;28;20230;-60
2022/07/18 03:44:15;;;;;;;4.30;3.43;;;19.50;61.30;;;22.10;46.61;102376.34;5115786;28;20199;-57
2022/07/18 03:46:43;;;;;;;6.03;3.33;;;19.50;60.70;;;22.00;46.79;102370.59;5117411;28;20192;-61
2022/07/18 03:49:10;;;;;;;4.23;3.00;;;19.40;60.60;;;21.95;46.70;102362.34;5117378;28;20187;-58
2022/07/18 03:51:39;;;;;;;3.70;3.33;;;19.40;60.80;;;21.96;46.82;102366.69;5116617;28;20208;-58
2022/07/18 03:54:06;;;;;;;3.00;2.80;;;19.30;60.90;;;21.95;46.83;102370.38;5097963;28;20283;-59
2022/07/18 03:56:37;;;;;;;3.83;3.33;;;19.30;60.90;;;21.96;46.69;102369.34;5096591;28;20196;-60
2022/07/18 03:59:04;;;;;;;4.10;3.00;;;19.30;61.00;;;21.94;46.92;102376.78;5096605;28;20190;-60
2022/07/18 04:01:32;;;;;;;4.27;3.57;;;19.30;61.10;;;21.89;47.22;102379.28;5096258;28;20216;-60
2022/07/18 04:03:59;;;;;;;3.40;3.10;;;19.20;61.30;;;21.85;47.29;102378.84;5096669;28;20191;-59
2022/07/18 04:06:27;;;;;;;5.47;3.23;;;19.20;61.30;;;21.89;47.80;102373.91;5096676;28;20188;-60
2022/07/18 04:08:56;;;;;;;3.60;3.30;;;19.20;62.00;;;21.95;47.04;102379.25;5097824;28;20191;-60
2022/07/18 04:11:23;;;;;;;3.23;3.00;;;19.20;61.70;;;22.00;47.17;102371.41;5096167;28;20205;-59
2022/07/18 04:13:51;;;;;;;5.23;3.37;;;19.30;61.80;;;22.09;46.96;102377.38;5096178;28;20564;-59
2022/07/18 04:16:19;;;;;;;5.27;3.30;;;19.30;61.90;;;22.14;46.75;102377.56;5096581;28;20196;-60
2022/07/18 04:18:47;;;;;;;4.33;3.57;;;19.40;61.60;;;22.16;46.58;102370.13;5096463;28;20626;-59
2022/07/18 04:21:15;;;;;;;4.00;3.00;;;19.40;61.50;;;22.21;46.95;102373.00;5095843;28;20220;-60
2022/07/18 04:23:43;;;;;;;5.10;3.37;;;19.50;61.50;;;22.23;46.62;102366.38;5096443;28;20196;-60
2022/07/18 04:26:12;;;;;;;3.43;3.10;;;19.50;61.30;;;22.25;46.77;102363.47;5097493;28;20614;-58
2022/07/18 04:28:39;;;;;;;4.57;3.87;;;19.50;61.40;;;22.27;46.75;102364.91;5096060;28;20196;-59
2022/07/18 04:31:07;;;;;;;3.93;3.17;;;19.50;61.10;;;22.27;46.28;102361.44;5095975;28;20208;-60
2022/07/18 04:33:34;;;;;;;5.40;3.00;;;19.50;60.80;;;22.29;46.69;102359.38;5095402;28;20189;-59
2022/07/18 04:36:01;;;;;;;3.23;2.80;;;19.50;60.90;;;22.34;47.05;102367.59;5095987;28;20192;-58
2022/07/18 04:38:33;;;;;;;4.27;2.90;;;19.60;61.10;;;22.39;46.11;102365.13;5095975;28;20193;-60
2022/07/18 04:41:01;;;;;;;5.77;3.33;;;19.60;60.70;;;22.38;46.00;102360.78;5095829;28;20251;-59
2022/07/18 04:43:30;;;;;;;5.37;3.67;;;19.70;60.30;;;22.37;46.02;102355.63;5115289;28;20195;-60
2022/07/18 04:45:58;;;;;;;3.87;3.30;;;19.70;60.40;;;22.41;46.01;102354.16;5116257;28;20190;-60
2022/07/18 04:48:25;;;;;;;4.93;3.40;;;19.70;60.40;;;22.46;46.42;102352.50;5115828;28;20196;-59
2022/07/18 04:50:53;;;;;;;2.80;2.60;;;19.70;60.60;;;22.51;46.08;102352.66;5115930;28;20196;-59
2022/07/18 04:53:20;;;;;;;3.27;2.83;;;19.70;60.50;;;22.55;46.21;102351.19;5116165;28;20192;-59
2022/07/18 04:55:48;;;;;;;4.20;3.57;;;19.70;60.30;;;22.56;45.69;102354.72;5114477;28;20188;-59
2022/07/18 04:58:15;;;;;;;4.17;2.93;;;19.80;60.10;;;22.56;45.81;102350.16;5114059;28;20191;-59
2022/07/18 05:00:44;;;;;;;4.43;3.60;;;19.80;60.00;;;22.56;45.81;102363.56;5115268;27;20215;-58
2022/07/18 05:03:13;;;;;;;3.83;3.40;;;19.80;59.90;;;22.56;45.69;102355.50;5116013;27;20198;-59
2022/07/18 05:05:41;;;;;;;4.27;3.40;;;19.80;59.80;;;22.51;45.70;102347.28;5115689;28;20184;-60
2022/07/18 05:08:11;;;;;;;3.00;2.70;;;19.80;59.70;;;22.48;45.54;102347.72;5115624;28;20187;-59
2022/07/18 05:10:38;;;;;;;4.33;3.00;;;19.80;60.50;;;22.46;45.78;102348.97;5115504;28;20189;-60
2022/07/18 05:13:06;;;;;;;4.57;3.00;;;19.80;59.80;;;22.43;45.65;102350.22;5115428;28;20204;-58
2022/07/18 05:15:33;;;;;;;3.83;3.33;;;19.70;59.70;;;22.40;46.19;102345.28;5113499;28;20660;-60
2022/07/18 05:18:02;;;;;;;4.23;3.33;;;19.70;59.80;;;22.38;45.74;102335.78;5115481;28;20192;-59
2022/07/18 05:20:30;;;;;;;4.27;2.97;;;19.70;59.80;;;22.37;45.86;102324.22;5114244;28;20665;-59
2022/07/18 05:22:57;;;;;;;5.07;3.03;;;19.70;59.90;;;22.45;45.97;102331.22;5115325;28;20204;-59
2022/07/18 05:25:25;;;;;;;3.80;2.83;;;19.70;60.00;;;22.54;45.58;102336.13;5115014;28;20261;-59
2022/07/18 05:27:53;;;;;;;5.20;3.17;;;19.80;60.00;;;22.63;45.76;102337.53;5115059;28;20200;-60
2022/07/18 05:30:21;;;;;;;5.20;3.23;;;19.80;60.00;;;22.72;45.41;102333.59;5113138;28;20191;-61
2022/07/18 05:32:51;;;;;;;4.20;3.27;;;19.90;59.90;;;22.82;45.31;102335.81;5116160;28;20203;-59
2022/07/18 05:35:21;;;;;;;5.20;3.43;;;20.00;59.80;;;22.92;45.08;102332.66;5118496;28;20216;-60
2022/07/18 05:37:49;;;;;;;5.10;2.80;;;20.00;59.70;;;23.02;44.79;102328.44;5114949;28;20194;-59
2022/07/18 05:40:17;;;;;;;6.10;3.23;;;20.10;59.50;;;23.17;44.60;102322.75;5115250;28;20192;-59
2022/07/18 05:42:45;;;;;;;4.80;3.17;;;20.20;59.40;;;23.29;44.66;102329.06;5114648;28;20694;-59
2022/07/18 05:45:23;;;;;;;8.47;3.37;;;20.30;59.30;;;23.37;44.08;102332.31;5115242;28;20187;-59
2022/07/18 05:47:51;;;;;;;3.30;2.97;;;20.40;59.10;;;23.46;44.35;102346.31;5113569;28;20248;-59
2022/07/18 05:50:20;;;;;;;4.27;3.20;;;20.50;59.00;;;23.56;44.12;102341.25;5115435;28;20255;-60
2022/07/18 05:52:47;;;;;;;6.20;2.80;;;20.60;59.00;;;23.69;43.84;102334.94;5114268;28;20200;-59
2022/07/18 05:55:15;;;;;;;6.57;2.97;;;20.70;58.90;;;23.79;43.71;102322.63;5114188;27;20191;-60
2022/07/18 05:57:42;;;;;;;5.23;2.80;;;20.80;58.60;;;23.84;43.45;102328.16;5114599;28;20179;-59
2022/07/18 06:00:12;;;;;;;3.80;3.10;;;20.90;58.30;;;23.87;43.38;102321.47;5114313;28;20191;-60
2022/07/18 06:02:39;;;;;;;4.07;2.90;;;20.90;58.10;;;23.84;43.35;102328.16;5114599;28;20567;-60
2022/07/18 06:05:09;;;;;;;4.60;2.37;;;21.00;57.90;;;23.83;43.21;102329.19;5112688;27;20325;-60
2022/07/18 06:07:56;;;;;;;4.83;2.63;;;21.00;57.70;;;23.78;43.42;102326.34;5113768;28;20196;-58
2022/07/18 06:10:25;;;;;;;3.53;2.40;;;21.00;57.40;;;23.79;43.13;102330.69;5129880;27;20184;-59
2022/07/18 06:12:54;;;;;;;4.17;2.90;;;21.00;57.30;;;23.86;43.13;102330.63;5113873;28;20204;-59
2022/07/18 06:15:22;;;;;;;3.90;3.13;;;21.00;57.30;;;23.93;42.98;102326.81;5113931;28;20188;-58
2022/07/18 06:17:50;;;;;;;3.77;2.97;;;21.10;57.00;;;23.96;42.54;102325.56;5114132;28;20207;-58
2022/07/18 06:20:18;;;;;;;9.63;3.57;;;21.10;56.70;;;23.94;42.63;102309.59;5112375;28;20196;-57
2022/07/18 06:22:46;;;;;;;5.87;3.47;;;21.10;56.60;;;24.03;42.61;102312.84;5113093;28;20536;-60
2022/07/18 06:25:15;;;;;;;8.00;3.30;;;21.20;56.80;;;24.10;42.23;102314.41;5113673;28;20620;-59
2022/07/18 06:27:43;;;;;;;5.13;3.27;;;21.30;56.60;;;24.16;42.16;102318.91;5113569;28;20712;-59
2022/07/18 06:30:12;;;;;;;4.77;3.30;;;21.30;56.10;;;24.21;42.02;102313.69;5113355;27;20195;-60
2022/07/18 06:32:40;;;;;;;4.17;3.13;;;21.40;56.10;;;24.27;41.48;102319.22;5113590;28;20683;-61
2022/07/18 06:35:09;;;;;;;5.07;3.60;;;21.50;56.00;;;24.38;41.69;102323.81;5111846;28;20188;-60
2022/07/18 06:37:36;;;;;;;4.40;2.93;;;21.50;56.00;;;24.46;41.82;102315.44;5111948;28;20199;-60
2022/07/18 06:40:06;;;;;;;4.33;2.93;;;21.60;55.60;;;24.51;41.18;102323.66;5112865;28;20210;-60
2022/07/18 06:42:35;;;;;;;2.87;2.67;;;21.60;55.30;;;24.50;40.89;102317.44;5113274;28;20227;-60
2022/07/18 06:45:06;;;;;;;4.33;2.80;;;21.70;54.90;;;24.57;41.05;102306.56;5113717;28;20198;-58
2022/07/18 06:47:41;;;;;;;6.03;2.87;;;21.80;55.00;;;24.59;40.81;102299.09;5113200;28;20216;-59
2022/07/18 06:50:10;;;;;;;2.90;2.43;;;21.80;54.60;;;24.60;40.55;102300.75;5113911;28;20194;-58
2022/07/18 06:52:39;;;;;;;5.67;3.00;;;21.90;54.40;;;24.58;40.41;102302.84;5111555;28;20211;-59
2022/07/18 06:55:09;;;;;;;4.10;2.57;;;21.90;54.20;;;24.60;40.88;102306.13;5072731;28;20189;-58
2022/07/18 06:57:39;;;;;;;2.77;2.27;;;21.90;54.20;;;24.62;40.38;102304.03;5072482;28;20264;-59
2022/07/18 07:00:09;;;;;;;3.83;2.23;;;21.90;54.10;;;24.75;41.03;102296.56;5072682;28;20551;-59
2022/07/18 07:02:40;;;;;;;5.27;3.37;;;22.10;54.50;;;24.90;40.86;102296.16;5072908;28;20209;-59
2022/07/18 07:05:09;;;;;;;3.03;2.67;;;22.10;54.40;;;25.06;40.37;102289.28;5073433;28;20581;-62
2022/07/18 07:07:36;;;;;;;5.30;3.13;;;22.20;54.10;;;25.17;40.20;102292.00;5071299;28;20321;-61
2022/07/18 07:10:12;;;;;;;5.17;2.70;;;22.30;54.10;;;25.33;39.83;102291.31;5083061;28;20203;-59
2022/07/18 07:12:43;;;;;;;4.50;2.67;;;22.40;54.00;;;25.44;39.84;102287.81;5092394;28;20245;-58
2022/07/18 07:15:11;;;;;;;4.97;2.33;;;22.60;53.80;;;25.57;39.86;102291.34;5093191;28;20196;-60
2022/07/18 07:17:38;;;;;;;2.77;2.43;;;22.70;53.50;;;25.69;39.33;102300.25;5093011;28;20180;-59
2022/07/18 07:20:08;;;;;;;3.07;2.57;;;22.80;53.40;;;25.80;38.21;102308.31;5096575;28;20495;-60
2022/07/18 07:22:42;;;;;;;5.60;2.13;;;22.90;51.30;;;25.84;37.31;102305.97;5096771;28;20216;-59
2022/07/18 07:25:10;;;;;;;3.63;1.90;;;23.00;50.90;;;25.92;38.05;102300.19;5097031;28;20196;-59
2022/07/18 07:27:38;;;;;;;4.80;2.50;;;23.10;51.20;;;26.00;38.02;102294.44;5097783;28;20202;-60
2022/07/18 07:30:08;;;;;;;3.17;2.40;;;23.10;51.60;;;26.07;37.82;102287.84;5096737;28;20295;-60
2022/07/18 07:32:36;;;;;;;3.17;2.17;;;23.20;50.90;;;26.17;38.21;102279.16;5096963;28;20212;-60
2022/07/18 07:35:11;;;;;;;2.53;1.97;;;23.40;51.20;;;26.28;37.31;102277.47;5097046;28;20192;-59
2022/07/18 07:37:38;;;;;;;4.53;2.23;;;23.40;51.00;;;26.38;37.16;102278.50;5097354;28;20682;-59
2022/07/18 07:40:07;;;;;;;2.20;1.83;;;23.60;50.60;;;26.48;37.50;102289.47;5096294;28;20211;-61
2022/07/18 07:42:35;;;;;;;4.20;2.20;;;23.60;50.40;;;26.59;36.93;102283.22;5097223;28;20224;-59
2022/07/18 07:45:03;;;;;;;5.17;2.50;;;23.70;50.30;;;26.77;36.90;102293.81;5096587;28;20203;-61
2022/07/18 07:47:32;;;;;;;3.77;2.00;;;23.90;50.10;;;26.95;36.83;102300.06;5095973;28;20181;-60
2022/07/18 07:50:00;;;;;;;3.40;2.00;;;24.00;49.80;;;27.13;36.71;102292.53;5096599;28;20347;-52
2022/07/18 07:52:28;;;;;;;3.90;1.80;;;24.10;49.90;;;27.31;35.69;102289.59;5096184;28;20201;-52
2022/07/18 07:54:56;;;;;;;2.80;1.70;;;24.30;49.40;;;27.50;35.58;102295.56;5096135;28;20191;-52
2022/07/18 07:57:23;;;;;;;4.80;2.00;;;24.40;49.10;;;27.69;35.10;102291.50;5096114;28;20188;-52
2022/07/18 07:59:51;;;;;;;2.27;1.73;;;24.60;48.90;;;27.80;34.98;102287.84;5097608;28;20188;-52
2022/07/18 08:02:19;;;;;;;2.70;1.90;;;24.70;48.00;;;27.98;34.47;102284.03;5096359;28;20216;-52
2022/07/18 08:04:48;;;;;;;7.33;2.30;;;24.90;47.60;;;28.09;33.97;102275.81;5096657;28;20188;-51
2022/07/18 08:07:15;;;;;;;5.27;2.43;;;25.00;46.50;;;28.21;33.91;102261.28;5095891;28;20272;-52
2022/07/18 08:09:43;;;;;;;3.10;2.13;;;25.20;46.80;;;28.36;33.69;102269.59;5096677;28;20196;-51
2022/07/18 08:12:10;;;;;;;3.47;3.03;;;25.30;46.00;;;28.60;33.55;102270.94;5113842;28;20214;-54
2022/07/18 08:14:40;;;;;;;2.20;2.10;;;25.50;46.40;;;29.22;33.58;102266.59;5116384;28;20180;-50
2022/07/18 08:17:07;;;;;;;2.63;2.00;;;25.70;46.70;;;30.12;31.69;102268.13;5116565;28;20195;-53
2022/07/18 08:19:35;;;;;;;4.27;2.37;;;26.10;46.00;;;31.12;30.58;102272.13;5116475;28;20333;-52
2022/07/18 08:22:03;;;;;;;2.57;2.37;;;26.60;46.20;;;32.03;29.47;102262.59;5115953;28;20207;-51
2022/07/18 08:24:31;;;;;;;2.47;2.10;;;27.10;45.00;;;32.74;28.46;102256.69;5111268;28;20196;-51
2022/07/18 08:26:58;;;;;;;5.20;1.97;;;27.70;43.20;;;33.16;26.29;102258.78;5096121;28;20197;-52
2022/07/18 08:29:26;;;;;;;3.20;2.10;;;28.20;38.10;;;33.35;25.35;102251.50;5095301;28;20275;-52
2022/07/18 08:32:13;;;;;;;2.30;1.80;;;28.60;36.90;;;33.61;25.36;102250.13;5095438;28;20273;-51
2022/07/18 08:34:40;;;;;;;2.53;2.10;;;29.00;36.50;;;33.79;24.08;102248.50;5095040;28;20508;-51
2022/07/18 08:37:10;;;;;;;2.40;2.20;;;29.30;33.80;;;33.90;23.61;102244.56;5095451;28;20705;-51
2022/07/18 08:39:37;;;;;;;3.43;2.67;;;29.60;32.80;;;33.98;23.24;102238.41;5095077;28;20192;-51
2022/07/18 08:42:07;;;;;;;3.87;2.23;;;29.80;32.20;;;34.27;23.44;102247.31;5109591;28;20215;-51
2022/07/18 08:44:38;;;;;;;4.63;2.47;;;30.00;32.70;;;34.65;23.15;102257.13;5115901;28;20172;-51
2022/07/18 08:47:07;;;;;;;3.20;2.10;;;30.20;32.00;;;35.14;22.07;102245.59;5114615;28;20221;-51
2022/07/18 08:49:36;;;;;;;2.47;2.27;;;30.50;31.40;;;35.84;22.50;102242.56;5114540;28;20199;-53
2022/07/18 08:52:05;;;;;;;4.77;3.20;;;30.80;31.90;;;36.37;20.06;102234.50;5114571;28;20215;-53
2022/07/18 08:54:35;;;;;;;4.03;3.63;;;31.20;29.50;;;36.70;19.60;102244.13;5115700;28;20199;-52
2022/07/18 08:57:03;;;;;;;3.77;2.97;;;31.50;27.90;;;36.93;18.50;102243.00;5110313;28;20233;-51
2022/07/18 08:59:30;;;;;;;4.20;3.35;;;31.90;27.30;;;37.42;18.88;102238.38;5094083;28;20657;-50
2022/07/18 09:01:58;;;;;;;4.63;3.05;;;32.20;27.30;;;38.30;18.96;102237.09;5094114;28;20242;-51
2022/07/18 09:04:34;;;;;;;3.08;2.78;;;32.60;28.10;;;39.07;18.10;102239.66;5095557;28;20699;-52
2022/07/18 09:07:03;;;;;;;4.28;3.20;;;33.10;27.10;;;39.39;17.29;102239.06;5095462;28;20192;-52
2022/07/18 09:09:32;;;;;;;3.28;2.97;;;33.50;26.20;;;39.48;17.25;102237.06;5095113;28;20191;-51
2022/07/18 09:12:04;;;;;;;3.67;2.95;;;33.80;25.60;;;39.62;17.50;102223.88;5094482;27;20224;-51
2022/07/18 09:14:38;;;;;;;5.82;3.75;;;34.00;25.60;;;39.40;16.33;102221.38;5108626;28;20651;-51
2022/07/18 09:17:09;;;;;;;4.82;4.40;;;34.10;23.70;;;39.27;16.21;102225.19;5115378;28;20202;-52
2022/07/18 09:19:42;;;;;;;4.28;3.92;;;34.20;24.00;;;39.52;15.78;102224.22;5114701;28;20203;-51
2022/07/18 09:22:19;;;;;;;5.30;3.97;;;34.30;23.70;;;39.77;16.41;102220.50;5114382;28;20269;-50
2022/07/18 09:25:00;;;;;;;4.85;3.35;;;34.40;24.10;;;40.28;16.66;102218.47;5115422;28;20191;-50
2022/07/18 09:27:33;;;;;;;5.47;3.50;;;34.70;24.30;;;40.33;15.54;102215.50;5115053;28;20268;-50
2022/07/18 09:30:24;;;;;;;3.90;3.60;;;34.80;23.00;;;40.92;15.50;102211.31;5106630;28;20192;-52
2022/07/18 09:33:04;;;;;;;3.97;3.58;;;35.10;23.20;;;41.29;14.89;102216.91;5094564;28;20219;-50
2022/07/18 09:35:35;;;;;;;3.92;3.30;;;35.30;22.70;;;41.03;15.01;102209.72;5094833;28;20189;-51
2022/07/18 09:38:07;;;;;;;3.60;3.30;;;35.40;22.70;;;40.62;15.64;102209.88;5094287;28;20208;-52
2022/07/18 09:40:38;;;;;;;3.78;3.47;;;35.50;22.60;;;40.40;15.82;102215.75;5095038;28;20271;-51
2022/07/18 09:43:08;;;;;;;5.32;3.53;;;35.50;23.30;;;39.85;15.24;102208.59;5093739;28;20252;-53
2022/07/18 09:45:38;;;;;;;5.03;3.80;;;35.30;21.80;;;39.14;15.80;102206.88;5095164;28;20208;-51
2022/07/18 09:48:08;;;;;;;3.80;3.50;;;35.10;22.00;;;38.51;15.98;102213.25;5094735;28;20259;-54
2022/07/18 09:50:40;;;;;;;4.40;4.00;;;34.80;22.00;;;37.88;16.44;102200.16;5093682;28;20193;-51
2022/07/18 09:53:14;;;;;;;4.82;4.28;;;34.40;22.30;;;37.27;16.86;102196.44;5093498;28;20379;-50
2022/07/18 09:56:04;;;;;;;4.97;3.95;;;34.00;21.90;;;36.73;17.90;102198.75;5093523;28;20193;-54
2022/07/18 09:58:36;;;;;;;3.60;3.30;;;33.60;22.80;;;36.55;18.52;102192.34;5093220;28;20194;-51
2022/07/18 10:01:07;;;;;;;7.20;4.60;;;33.30;23.80;;;36.38;17.79;102190.28;5093467;28;20185;-51
2022/07/18 10:03:35;;;;;;;4.65;4.18;;;33.00;23.10;;;36.12;17.76;102193.94;5094520;28;20223;-51
2022/07/18 10:06:04;;;;;;;4.90;4.50;;;32.80;22.90;;;36.06;17.68;102185.06;5094030;28;20689;-50
2022/07/18 10:08:33;;;;;;;4.87;4.47;;;32.70;23.80;;;36.18;17.98;102184.50;5094563;28;20571;-51
2022/07/18 10:11:05;;;;;;;5.45;4.78;;;32.60;23.90;;;36.32;17.26;102187.97;5094435;28;20203;-52
2022/07/18 10:13:35;;;;;;;5.13;4.05;;;32.50;24.10;;;36.34;18.09;102191.22;5094165;28;20173;-51
2022/07/18 10:16:05;;;;;;;4.82;4.43;;;32.50;24.50;;;36.37;17.76;102198.84;5093553;28;20181;-53
2022/07/18 10:18:36;;;;;;;6.07;5.47;;;32.50;24.10;;;36.43;16.67;102195.63;5096697;28;20188;-51
2022/07/18 10:21:08;;;;;;;5.05;4.53;;;32.50;23.80;;;36.46;17.29;102196.97;5112678;28;20199;-51
2022/07/18 10:23:42;;;;;;;5.93;5.22;;;32.50;23.50;;;36.63;17.20;102191.59;5101291;28;20292;-51